sensor_id;sensor_type;location;lat;lon;timestamp;P1;durP1;ratioP1;P2;durP2;ratioP2
59756;SDS011;45631;51.962;5.974;2022-08-11T00:02:27;4.72;;;1.90;;
59756;SDS011;45631;51.962;5.974;2022-08-11T00:05:03;4.57;;;2.45;;
59756;SDS011;45631;51.962;5.974;2022-08-11T00:07:33;5.72;;;2.08;;
59756;SDS011;45631;51.962;5.974;2022-08-11T00:10:08;7.00;;;2.17;;
59756;SDS011;45631;51.962;5.974;2022-08-11T00:12:38;5.47;;;2.03;;
59756;SDS011;45631;51.962;5.974;2022-08-11T00:15:11;7.85;;;2.53;;
59756;SDS011;45631;51.962;5.974;2022-08-11T00:17:39;6.80;;;2.60;;
59756;SDS011;45631;51.962;5.974;2022-08-11T00:20:10;5.53;;;2.35;;
59756;SDS011;45631;51.962;5.974;2022-08-11T00:22:43;6.53;;;2.50;;
59756;SDS011;45631;51.962;5.974;2022-08-11T00:25:14;5.53;;;2.00;;
59756;SDS011;45631;51.962;5.974;2022-08-11T00:27:45;3.58;;;2.30;;
59756;SDS011;45631;51.962;5.974;2022-08-11T00:30:16;5.63;;;2.38;;
59756;SDS011;45631;51.962;5.974;2022-08-11T00:32:45;6.05;;;2.33;;
59756;SDS011;45631;51.962;5.974;2022-08-11T00:35:23;7.35;;;2.67;;
59756;SDS011;45631;51.962;5.974;2022-08-11T00:38:17;5.88;;;2.58;;
59756;SDS011;45631;51.962;5.974;2022-08-11T00:40:52;6.05;;;2.70;;
59756;SDS011;45631;51.962;5.974;2022-08-11T00:43:31;7.28;;;2.72;;
59756;SDS011;45631;51.962;5.974;2022-08-11T00:46:17;4.93;;;2.17;;
59756;SDS011;45631;51.962;5.974;2022-08-11T00:48:59;5.40;;;2.60;;
59756;SDS011;45631;51.962;5.974;2022-08-11T00:51:43;4.00;;;2.33;;
59756;SDS011;45631;51.962;5.974;2022-08-11T00:57:58;6.20;;;2.33;;
59756;SDS011;45631;51.962;5.974;2022-08-11T01:03:47;8.00;;;2.72;;
59756;SDS011;45631;51.962;5.974;2022-08-11T01:10:32;4.93;;;2.20;;
59756;SDS011;45631;51.962;5.974;2022-08-11T01:13:14;9.95;;;2.63;;
59756;SDS011;45631;51.962;5.974;2022-08-11T01:16:11;7.32;;;2.40;;
59756;SDS011;45631;51.962;5.974;2022-08-11T01:19:07;5.97;;;2.67;;
59756;SDS011;45631;51.962;5.974;2022-08-11T01:22:27;5.22;;;2.30;;
59756;SDS011;45631;51.962;5.974;2022-08-11T01:25:41;8.97;;;2.90;;
59756;SDS011;45631;51.962;5.974;2022-08-11T01:44:16;3.75;;;2.05;;
59756;SDS011;45631;51.962;5.974;2022-08-11T01:47:13;5.45;;;2.28;;
59756;SDS011;45631;51.962;5.974;2022-08-11T01:50:06;7.10;;;2.35;;
59756;SDS011;45631;51.962;5.974;2022-08-11T01:52:44;5.80;;;2.38;;
59756;SDS011;45631;51.962;5.974;2022-08-11T01:55:29;6.75;;;2.40;;
59756;SDS011;45631;51.962;5.974;2022-08-11T01:58:06;7.15;;;2.10;;
59756;SDS011;45631;51.962;5.974;2022-08-11T02:00:48;7.50;;;2.33;;
59756;SDS011;45631;51.962;5.974;2022-08-11T02:03:23;7.22;;;2.60;;
59756;SDS011;45631;51.962;5.974;2022-08-11T02:05:59;7.53;;;2.67;;
59756;SDS011;45631;51.962;5.974;2022-08-11T02:08:54;7.70;;;3.10;;
59756;SDS011;45631;51.962;5.974;2022-08-11T02:11:30;5.72;;;2.50;;
59756;SDS011;45631;51.962;5.974;2022-08-11T02:14:09;4.85;;;2.45;;
59756;SDS011;45631;51.962;5.974;2022-08-11T02:16:54;7.07;;;2.55;;
59756;SDS011;45631;51.962;5.974;2022-08-11T02:19:32;4.30;;;2.22;;
59756;SDS011;45631;51.962;5.974;2022-08-11T02:22:29;6.70;;;2.55;;
59756;SDS011;45631;51.962;5.974;2022-08-11T02:25:20;11.23;;;2.60;;
59756;SDS011;45631;51.962;5.974;2022-08-11T02:27:58;5.30;;;2.28;;
59756;SDS011;45631;51.962;5.974;2022-08-11T02:30:30;7.15;;;2.78;;
59756;SDS011;45631;51.962;5.974;2022-08-11T02:33:07;5.78;;;2.75;;
59756;SDS011;45631;51.962;5.974;2022-08-11T02:35:54;8.43;;;2.80;;
59756;SDS011;45631;51.962;5.974;2022-08-11T02:38:29;7.75;;;2.40;;
59756;SDS011;45631;51.962;5.974;2022-08-11T02:41:04;5.65;;;2.55;;
59756;SDS011;45631;51.962;5.974;2022-08-11T02:44:05;5.25;;;2.30;;
59756;SDS011;45631;51.962;5.974;2022-08-11T02:46:48;5.75;;;2.50;;
59756;SDS011;45631;51.962;5.974;2022-08-11T02:49:39;6.22;;;2.80;;
59756;SDS011;45631;51.962;5.974;2022-08-11T02:52:34;6.45;;;2.78;;
59756;SDS011;45631;51.962;5.974;2022-08-11T02:55:17;6.45;;;2.60;;
59756;SDS011;45631;51.962;5.974;2022-08-11T02:58:13;5.95;;;2.65;;
59756;SDS011;45631;51.962;5.974;2022-08-11T03:00:56;7.00;;;2.65;;
59756;SDS011;45631;51.962;5.974;2022-08-11T03:03:38;5.85;;;2.63;;
59756;SDS011;45631;51.962;5.974;2022-08-11T03:06:19;5.78;;;2.60;;
59756;SDS011;45631;51.962;5.974;2022-08-11T03:08:59;4.72;;;2.65;;
59756;SDS011;45631;51.962;5.974;2022-08-11T03:11:42;5.63;;;2.53;;
59756;SDS011;45631;51.962;5.974;2022-08-11T03:14:51;6.60;;;2.80;;
59756;SDS011;45631;51.962;5.974;2022-08-11T03:17:48;5.22;;;2.90;;
59756;SDS011;45631;51.962;5.974;2022-08-11T03:20:31;7.20;;;2.90;;
59756;SDS011;45631;51.962;5.974;2022-08-11T03:23:10;6.13;;;2.78;;
59756;SDS011;45631;51.962;5.974;2022-08-11T03:25:50;6.13;;;3.38;;
59756;SDS011;45631;51.962;5.974;2022-08-11T03:28:30;5.38;;;2.80;;
59756;SDS011;45631;51.962;5.974;2022-08-11T03:31:06;6.50;;;3.22;;
59756;SDS011;45631;51.962;5.974;2022-08-11T03:33:46;5.43;;;2.75;;
59756;SDS011;45631;51.962;5.974;2022-08-11T03:36:40;6.65;;;2.90;;
59756;SDS011;45631;51.962;5.974;2022-08-11T03:39:52;5.70;;;3.20;;
59756;SDS011;45631;51.962;5.974;2022-08-11T03:42:27;6.15;;;3.13;;
59756;SDS011;45631;51.962;5.974;2022-08-11T03:45:04;6.43;;;3.20;;
59756;SDS011;45631;51.962;5.974;2022-08-11T03:47:46;5.80;;;3.20;;
59756;SDS011;45631;51.962;5.974;2022-08-11T03:50:34;7.75;;;3.42;;
59756;SDS011;45631;51.962;5.974;2022-08-11T03:53:43;7.35;;;3.50;;
59756;SDS011;45631;51.962;5.974;2022-08-11T03:56:26;7.43;;;3.28;;
59756;SDS011;45631;51.962;5.974;2022-08-11T03:59:28;7.03;;;3.28;;
59756;SDS011;45631;51.962;5.974;2022-08-11T04:02:20;7.40;;;3.55;;
59756;SDS011;45631;51.962;5.974;2022-08-11T04:05:15;6.50;;;3.20;;
59756;SDS011;45631;51.962;5.974;2022-08-11T04:08:16;8.05;;;3.53;;
59756;SDS011;45631;51.962;5.974;2022-08-11T04:14:10;6.38;;;3.15;;
59756;SDS011;45631;51.962;5.974;2022-08-11T04:20:28;7.13;;;3.40;;
59756;SDS011;45631;51.962;5.974;2022-08-11T04:23:26;7.32;;;3.47;;
59756;SDS011;45631;51.962;5.974;2022-08-11T04:29:50;12.30;;;3.95;;
59756;SDS011;45631;51.962;5.974;2022-08-11T04:35:38;7.82;;;3.65;;
59756;SDS011;45631;51.962;5.974;2022-08-11T04:41:31;8.32;;;3.90;;
59756;SDS011;45631;51.962;5.974;2022-08-11T04:44:47;6.38;;;3.63;;
59756;SDS011;45631;51.962;5.974;2022-08-11T04:47:43;7.03;;;3.63;;
59756;SDS011;45631;51.962;5.974;2022-08-11T04:54:17;7.78;;;3.90;;
59756;SDS011;45631;51.962;5.974;2022-08-11T04:57:16;8.43;;;3.60;;
59756;SDS011;45631;51.962;5.974;2022-08-11T05:03:02;9.82;;;4.38;;
59756;SDS011;45631;51.962;5.974;2022-08-11T05:06:09;6.53;;;3.90;;
59756;SDS011;45631;51.962;5.974;2022-08-11T05:12:16;6.55;;;3.70;;
59756;SDS011;45631;51.962;5.974;2022-08-11T05:14:55;7.57;;;3.97;;
59756;SDS011;45631;51.962;5.974;2022-08-11T05:17:43;7.55;;;3.90;;
59756;SDS011;45631;51.962;5.974;2022-08-11T05:20:39;8.02;;;3.90;;
59756;SDS011;45631;51.962;5.974;2022-08-11T05:23:31;7.93;;;3.60;;
59756;SDS011;45631;51.962;5.974;2022-08-11T05:26:19;7.70;;;4.43;;
59756;SDS011;45631;51.962;5.974;2022-08-11T05:29:27;9.93;;;3.92;;
59756;SDS011;45631;51.962;5.974;2022-08-11T05:32:26;7.72;;;3.72;;
59756;SDS011;45631;51.962;5.974;2022-08-11T05:35:23;8.15;;;4.20;;
59756;SDS011;45631;51.962;5.974;2022-08-11T05:38:17;8.20;;;4.13;;
59756;SDS011;45631;51.962;5.974;2022-08-11T05:41:07;8.55;;;4.07;;
59756;SDS011;45631;51.962;5.974;2022-08-11T05:43:58;7.00;;;3.83;;
59756;SDS011;45631;51.962;5.974;2022-08-11T05:46:48;8.98;;;4.20;;
59756;SDS011;45631;51.962;5.974;2022-08-11T05:49:34;8.30;;;3.80;;
59756;SDS011;45631;51.962;5.974;2022-08-11T05:52:23;9.55;;;4.25;;
59756;SDS011;45631;51.962;5.974;2022-08-11T05:55:12;8.52;;;4.07;;
59756;SDS011;45631;51.962;5.974;2022-08-11T05:58:00;7.70;;;4.10;;
59756;SDS011;45631;51.962;5.974;2022-08-11T06:00:37;8.38;;;4.10;;
59756;SDS011;45631;51.962;5.974;2022-08-11T06:03:08;8.57;;;3.75;;
59756;SDS011;45631;51.962;5.974;2022-08-11T06:05:37;9.25;;;4.20;;
59756;SDS011;45631;51.962;5.974;2022-08-11T06:08:09;7.97;;;3.80;;
59756;SDS011;45631;51.962;5.974;2022-08-11T06:10:39;9.20;;;3.42;;
59756;SDS011;45631;51.962;5.974;2022-08-11T06:13:09;9.20;;;4.18;;
59756;SDS011;45631;51.962;5.974;2022-08-11T06:15:45;7.18;;;3.55;;
59756;SDS011;45631;51.962;5.974;2022-08-11T06:18:15;7.55;;;4.22;;
59756;SDS011;45631;51.962;5.974;2022-08-11T06:20:45;7.15;;;3.97;;
59756;SDS011;45631;51.962;5.974;2022-08-11T06:23:14;7.57;;;4.25;;
59756;SDS011;45631;51.962;5.974;2022-08-11T06:25:45;7.55;;;4.25;;
59756;SDS011;45631;51.962;5.974;2022-08-11T06:28:14;8.70;;;4.68;;
59756;SDS011;45631;51.962;5.974;2022-08-11T06:30:48;7.88;;;4.30;;
59756;SDS011;45631;51.962;5.974;2022-08-11T06:33:18;7.05;;;4.20;;
59756;SDS011;45631;51.962;5.974;2022-08-11T06:36:02;10.77;;;4.88;;
59756;SDS011;45631;51.962;5.974;2022-08-11T06:43:30;9.10;;;4.13;;
59756;SDS011;45631;51.962;5.974;2022-08-11T06:46:27;8.90;;;4.80;;
59756;SDS011;45631;51.962;5.974;2022-08-11T06:48:59;8.75;;;4.22;;
59756;SDS011;45631;51.962;5.974;2022-08-11T06:51:28;8.15;;;4.45;;
59756;SDS011;45631;51.962;5.974;2022-08-11T06:53:59;7.70;;;4.35;;
59756;SDS011;45631;51.962;5.974;2022-08-11T06:56:32;11.65;;;4.65;;
59756;SDS011;45631;51.962;5.974;2022-08-11T06:59:40;8.45;;;3.80;;
59756;SDS011;45631;51.962;5.974;2022-08-11T07:02:29;7.43;;;4.00;;
59756;SDS011;45631;51.962;5.974;2022-08-11T07:05:02;7.93;;;4.00;;
59756;SDS011;45631;51.962;5.974;2022-08-11T07:11:26;9.80;;;4.18;;
59756;SDS011;45631;51.962;5.974;2022-08-11T07:14:36;7.65;;;3.90;;
59756;SDS011;45631;51.962;5.974;2022-08-11T07:17:27;8.90;;;3.72;;
59756;SDS011;45631;51.962;5.974;2022-08-11T07:19:59;8.80;;;4.40;;
59756;SDS011;45631;51.962;5.974;2022-08-11T07:22:48;8.77;;;4.07;;
59756;SDS011;45631;51.962;5.974;2022-08-11T07:25:38;8.77;;;3.90;;
59756;SDS011;45631;51.962;5.974;2022-08-11T07:28:27;7.75;;;4.00;;
59756;SDS011;45631;51.962;5.974;2022-08-11T07:31:23;6.90;;;3.30;;
59756;SDS011;45631;51.962;5.974;2022-08-11T07:34:01;7.20;;;3.05;;
59756;SDS011;45631;51.962;5.974;2022-08-11T07:36:45;7.45;;;3.70;;
59756;SDS011;45631;51.962;5.974;2022-08-11T07:39:18;7.80;;;3.53;;
59756;SDS011;45631;51.962;5.974;2022-08-11T07:41:50;6.43;;;3.38;;
59756;SDS011;45631;51.962;5.974;2022-08-11T07:44:20;9.20;;;3.88;;
59756;SDS011;45631;51.962;5.974;2022-08-11T07:46:57;7.22;;;3.50;;
59756;SDS011;45631;51.962;5.974;2022-08-11T07:49:45;11.90;;;3.35;;
59756;SDS011;45631;51.962;5.974;2022-08-11T07:52:34;6.38;;;3.50;;
59756;SDS011;45631;51.962;5.974;2022-08-11T07:55:06;7.85;;;3.75;;
59756;SDS011;45631;51.962;5.974;2022-08-11T07:57:39;7.50;;;3.47;;
59756;SDS011;45631;51.962;5.974;2022-08-11T08:00:46;8.18;;;3.63;;
59756;SDS011;45631;51.962;5.974;2022-08-11T08:03:47;6.68;;;3.53;;
59756;SDS011;45631;51.962;5.974;2022-08-11T08:06:35;6.07;;;3.45;;
59756;SDS011;45631;51.962;5.974;2022-08-11T08:09:23;7.40;;;3.55;;
59756;SDS011;45631;51.962;5.974;2022-08-11T08:12:09;7.80;;;3.67;;
59756;SDS011;45631;51.962;5.974;2022-08-11T08:14:56;6.57;;;3.33;;
59756;SDS011;45631;51.962;5.974;2022-08-11T08:17:43;7.80;;;3.05;;
59756;SDS011;45631;51.962;5.974;2022-08-11T08:20:44;6.75;;;3.42;;
59756;SDS011;45631;51.962;5.974;2022-08-11T08:23:16;8.90;;;2.85;;
59756;SDS011;45631;51.962;5.974;2022-08-11T08:26:00;7.32;;;2.90;;
59756;SDS011;45631;51.962;5.974;2022-08-11T08:28:42;7.95;;;3.05;;
59756;SDS011;45631;51.962;5.974;2022-08-11T08:31:12;8.50;;;3.30;;
59756;SDS011;45631;51.962;5.974;2022-08-11T08:33:41;8.35;;;3.17;;
59756;SDS011;45631;51.962;5.974;2022-08-11T08:36:09;7.07;;;3.33;;
59756;SDS011;45631;51.962;5.974;2022-08-11T08:38:45;8.13;;;3.00;;
59756;SDS011;45631;51.962;5.974;2022-08-11T08:41:16;6.28;;;3.10;;
59756;SDS011;45631;51.962;5.974;2022-08-11T08:43:50;6.07;;;3.20;;
59756;SDS011;45631;51.962;5.974;2022-08-11T08:46:42;7.68;;;3.00;;
59756;SDS011;45631;51.962;5.974;2022-08-11T08:49:13;5.43;;;2.77;;
59756;SDS011;45631;51.962;5.974;2022-08-11T08:51:44;6.07;;;2.63;;
59756;SDS011;45631;51.962;5.974;2022-08-11T08:54:41;9.32;;;3.20;;
59756;SDS011;45631;51.962;5.974;2022-08-11T08:57:11;7.78;;;2.88;;
59756;SDS011;45631;51.962;5.974;2022-08-11T08:59:40;8.57;;;3.17;;
59756;SDS011;45631;51.962;5.974;2022-08-11T09:02:17;7.45;;;3.25;;
59756;SDS011;45631;51.962;5.974;2022-08-11T09:05:00;9.35;;;2.80;;
59756;SDS011;45631;51.962;5.974;2022-08-11T09:07:30;8.25;;;3.22;;
59756;SDS011;45631;51.962;5.974;2022-08-11T09:10:07;8.75;;;3.00;;
59756;SDS011;45631;51.962;5.974;2022-08-11T09:12:38;5.15;;;2.70;;
59756;SDS011;45631;51.962;5.974;2022-08-11T09:15:08;8.75;;;2.53;;
59756;SDS011;45631;51.962;5.974;2022-08-11T09:17:45;6.43;;;2.80;;
59756;SDS011;45631;51.962;5.974;2022-08-11T09:20:16;6.40;;;2.70;;
59756;SDS011;45631;51.962;5.974;2022-08-11T09:22:47;7.80;;;2.50;;
59756;SDS011;45631;51.962;5.974;2022-08-11T09:25:56;7.82;;;3.10;;
59756;SDS011;45631;51.962;5.974;2022-08-11T09:28:44;6.65;;;2.58;;
59756;SDS011;45631;51.962;5.974;2022-08-11T09:31:15;5.60;;;2.30;;
59756;SDS011;45631;51.962;5.974;2022-08-11T09:33:47;7.95;;;2.83;;
59756;SDS011;45631;51.962;5.974;2022-08-11T09:36:18;6.78;;;2.85;;
59756;SDS011;45631;51.962;5.974;2022-08-11T09:39:05;5.00;;;2.58;;
59756;SDS011;45631;51.962;5.974;2022-08-11T09:41:52;7.55;;;3.05;;
59756;SDS011;45631;51.962;5.974;2022-08-11T09:44:28;6.78;;;2.67;;
59756;SDS011;45631;51.962;5.974;2022-08-11T09:47:18;8.18;;;3.10;;
59756;SDS011;45631;51.962;5.974;2022-08-11T09:49:50;9.00;;;2.90;;
59756;SDS011;45631;51.962;5.974;2022-08-11T09:52:21;6.97;;;2.55;;
59756;SDS011;45631;51.962;5.974;2022-08-11T09:54:51;5.20;;;2.20;;
59756;SDS011;45631;51.962;5.974;2022-08-11T09:57:22;6.80;;;2.78;;
59756;SDS011;45631;51.962;5.974;2022-08-11T10:00:10;5.82;;;2.55;;
59756;SDS011;45631;51.962;5.974;2022-08-11T10:02:41;5.70;;;2.90;;
59756;SDS011;45631;51.962;5.974;2022-08-11T10:05:11;5.57;;;2.88;;
59756;SDS011;45631;51.962;5.974;2022-08-11T10:08:01;4.97;;;2.63;;
59756;SDS011;45631;51.962;5.974;2022-08-11T10:10:30;6.00;;;2.55;;
59756;SDS011;45631;51.962;5.974;2022-08-11T10:13:04;6.07;;;2.38;;
59756;SDS011;45631;51.962;5.974;2022-08-11T10:15:55;6.60;;;2.53;;
59756;SDS011;45631;51.962;5.974;2022-08-11T10:18:42;5.82;;;2.65;;
59756;SDS011;45631;51.962;5.974;2022-08-11T10:21:26;6.60;;;2.40;;
59756;SDS011;45631;51.962;5.974;2022-08-11T10:24:00;3.25;;;2.03;;
59756;SDS011;45631;51.962;5.974;2022-08-11T10:26:47;4.22;;;2.33;;
59756;SDS011;45631;51.962;5.974;2022-08-11T10:29:22;5.32;;;2.55;;
59756;SDS011;45631;51.962;5.974;2022-08-11T10:32:18;6.55;;;2.03;;
59756;SDS011;45631;51.962;5.974;2022-08-11T10:35:24;4.38;;;2.30;;
59756;SDS011;45631;51.962;5.974;2022-08-11T10:37:53;6.20;;;2.50;;
59756;SDS011;45631;51.962;5.974;2022-08-11T10:40:36;6.63;;;2.33;;
59756;SDS011;45631;51.962;5.974;2022-08-11T10:43:05;7.25;;;2.30;;
59756;SDS011;45631;51.962;5.974;2022-08-11T10:45:41;4.65;;;2.10;;
59756;SDS011;45631;51.962;5.974;2022-08-11T10:48:31;4.82;;;2.30;;
59756;SDS011;45631;51.962;5.974;2022-08-11T10:51:04;4.82;;;1.98;;
59756;SDS011;45631;51.962;5.974;2022-08-11T10:53:40;4.72;;;2.15;;
59756;SDS011;45631;51.962;5.974;2022-08-11T10:56:28;6.53;;;2.22;;
59756;SDS011;45631;51.962;5.974;2022-08-11T10:59:17;5.15;;;1.95;;
59756;SDS011;45631;51.962;5.974;2022-08-11T11:01:46;4.63;;;2.00;;
59756;SDS011;45631;51.962;5.974;2022-08-11T11:04:16;5.75;;;2.42;;
59756;SDS011;45631;51.962;5.974;2022-08-11T11:06:50;6.45;;;2.30;;
59756;SDS011;45631;51.962;5.974;2022-08-11T11:09:27;6.90;;;2.15;;
59756;SDS011;45631;51.962;5.974;2022-08-11T11:11:58;5.97;;;2.20;;
59756;SDS011;45631;51.962;5.974;2022-08-11T11:14:47;5.88;;;2.40;;
59756;SDS011;45631;51.962;5.974;2022-08-11T11:17:45;4.47;;;1.95;;
59756;SDS011;45631;51.962;5.974;2022-08-11T11:20:28;4.85;;;1.90;;
59756;SDS011;45631;51.962;5.974;2022-08-11T11:23:05;4.85;;;1.95;;
59756;SDS011;45631;51.962;5.974;2022-08-11T11:25:45;3.35;;;1.85;;
59756;SDS011;45631;51.962;5.974;2022-08-11T11:28:48;4.43;;;2.03;;
59756;SDS011;45631;51.962;5.974;2022-08-11T11:31:39;4.65;;;2.00;;
59756;SDS011;45631;51.962;5.974;2022-08-11T11:36:53;4.25;;;1.90;;
59756;SDS011;45631;51.962;5.974;2022-08-11T11:39:24;4.63;;;2.03;;
59756;SDS011;45631;51.962;5.974;2022-08-11T11:41:54;3.92;;;1.95;;
59756;SDS011;45631;51.962;5.974;2022-08-11T11:44:24;3.33;;;1.73;;
59756;SDS011;45631;51.962;5.974;2022-08-11T11:46:53;4.22;;;2.13;;
59756;SDS011;45631;51.962;5.974;2022-08-11T11:49:26;5.22;;;1.80;;
59756;SDS011;45631;51.962;5.974;2022-08-11T11:51:58;4.90;;;2.00;;
59756;SDS011;45631;51.962;5.974;2022-08-11T11:54:27;3.55;;;2.10;;
59756;SDS011;45631;51.962;5.974;2022-08-11T11:56:57;3.83;;;1.88;;
59756;SDS011;45631;51.962;5.974;2022-08-11T11:59:48;5.50;;;1.90;;
59756;SDS011;45631;51.962;5.974;2022-08-11T12:02:36;4.18;;;1.90;;
59756;SDS011;45631;51.962;5.974;2022-08-11T12:05:09;5.47;;;1.77;;
59756;SDS011;45631;51.962;5.974;2022-08-11T12:07:38;5.13;;;1.98;;
59756;SDS011;45631;51.962;5.974;2022-08-11T12:10:39;4.72;;;1.90;;
59756;SDS011;45631;51.962;5.974;2022-08-11T12:13:10;3.15;;;1.80;;
59756;SDS011;45631;51.962;5.974;2022-08-11T12:15:57;3.15;;;2.05;;
59756;SDS011;45631;51.962;5.974;2022-08-11T12:18:49;4.95;;;1.80;;
59756;SDS011;45631;51.962;5.974;2022-08-11T12:21:20;4.97;;;1.80;;
59756;SDS011;45631;51.962;5.974;2022-08-11T12:23:51;3.23;;;1.63;;
59756;SDS011;45631;51.962;5.974;2022-08-11T12:26:38;5.68;;;1.98;;
59756;SDS011;45631;51.962;5.974;2022-08-11T12:29:43;6.00;;;1.95;;
59756;SDS011;45631;51.962;5.974;2022-08-11T12:32:20;3.40;;;1.55;;
59756;SDS011;45631;51.962;5.974;2022-08-11T12:34:50;3.92;;;1.60;;
59756;SDS011;45631;51.962;5.974;2022-08-11T12:37:21;4.22;;;1.90;;
59756;SDS011;45631;51.962;5.974;2022-08-11T12:39:57;4.93;;;1.90;;
59756;SDS011;45631;51.962;5.974;2022-08-11T12:43:06;4.57;;;1.90;;
59756;SDS011;45631;51.962;5.974;2022-08-11T12:46:06;4.47;;;1.73;;
59756;SDS011;45631;51.962;5.974;2022-08-11T12:48:40;3.60;;;2.00;;
59756;SDS011;45631;51.962;5.974;2022-08-11T12:51:30;3.30;;;1.88;;
59756;SDS011;45631;51.962;5.974;2022-08-11T12:54:43;4.05;;;1.80;;
59756;SDS011;45631;51.962;5.974;2022-08-11T12:57:21;4.28;;;1.90;;
59756;SDS011;45631;51.962;5.974;2022-08-11T13:00:13;3.72;;;1.98;;
59756;SDS011;45631;51.962;5.974;2022-08-11T13:03:02;3.42;;;1.60;;
59756;SDS011;45631;51.962;5.974;2022-08-11T13:05:50;7.28;;;1.98;;
59756;SDS011;45631;51.962;5.974;2022-08-11T13:08:21;7.60;;;2.07;;
59756;SDS011;45631;51.962;5.974;2022-08-11T13:10:53;4.10;;;2.05;;
59756;SDS011;45631;51.962;5.974;2022-08-11T13:13:41;4.22;;;1.90;;
59756;SDS011;45631;51.962;5.974;2022-08-11T13:16:22;5.40;;;2.08;;
59756;SDS011;45631;51.962;5.974;2022-08-11T13:18:53;5.13;;;2.05;;
59756;SDS011;45631;51.962;5.974;2022-08-11T13:21:22;3.05;;;1.83;;
59756;SDS011;45631;51.962;5.974;2022-08-11T13:23:52;4.47;;;1.70;;
59756;SDS011;45631;51.962;5.974;2022-08-11T13:26:33;7.55;;;1.90;;
59756;SDS011;45631;51.962;5.974;2022-08-11T13:29:16;3.78;;;1.80;;
59756;SDS011;45631;51.962;5.974;2022-08-11T13:31:46;4.20;;;1.80;;
59756;SDS011;45631;51.962;5.974;2022-08-11T13:34:15;3.20;;;1.90;;
59756;SDS011;45631;51.962;5.974;2022-08-11T13:36:45;3.50;;;1.80;;
59756;SDS011;45631;51.962;5.974;2022-08-11T13:39:18;4.32;;;2.03;;
59756;SDS011;45631;51.962;5.974;2022-08-11T13:41:51;5.30;;;2.00;;
59756;SDS011;45631;51.962;5.974;2022-08-11T13:44:23;3.03;;;1.88;;
59756;SDS011;45631;51.962;5.974;2022-08-11T13:46:55;4.73;;;1.93;;
59756;SDS011;45631;51.962;5.974;2022-08-11T13:49:27;4.65;;;1.90;;
59756;SDS011;45631;51.962;5.974;2022-08-11T13:51:58;5.38;;;1.70;;
59756;SDS011;45631;51.962;5.974;2022-08-11T13:54:29;3.15;;;1.90;;
59756;SDS011;45631;51.962;5.974;2022-08-11T13:57:02;3.97;;;2.00;;
59756;SDS011;45631;51.962;5.974;2022-08-11T13:59:35;5.75;;;2.10;;
59756;SDS011;45631;51.962;5.974;2022-08-11T14:02:18;3.83;;;1.90;;
59756;SDS011;45631;51.962;5.974;2022-08-11T14:04:57;5.13;;;1.80;;
59756;SDS011;45631;51.962;5.974;2022-08-11T14:07:31;4.28;;;2.00;;
59756;SDS011;45631;51.962;5.974;2022-08-11T14:10:05;4.90;;;2.00;;
59756;SDS011;45631;51.962;5.974;2022-08-11T14:12:37;4.32;;;1.90;;
59756;SDS011;45631;51.962;5.974;2022-08-11T14:15:28;4.70;;;1.90;;
59756;SDS011;45631;51.962;5.974;2022-08-11T14:18:00;5.75;;;1.80;;
59756;SDS011;45631;51.962;5.974;2022-08-11T14:20:33;2.97;;;1.80;;
59756;SDS011;45631;51.962;5.974;2022-08-11T14:23:22;3.45;;;2.00;;
59756;SDS011;45631;51.962;5.974;2022-08-11T14:25:54;5.43;;;2.25;;
59756;SDS011;45631;51.962;5.974;2022-08-11T14:28:42;4.82;;;1.85;;
59756;SDS011;45631;51.962;5.974;2022-08-11T14:31:11;4.40;;;2.10;;
59756;SDS011;45631;51.962;5.974;2022-08-11T14:33:41;3.78;;;1.95;;
59756;SDS011;45631;51.962;5.974;2022-08-11T14:36:27;3.85;;;1.98;;
59756;SDS011;45631;51.962;5.974;2022-08-11T14:39:00;4.72;;;1.85;;
59756;SDS011;45631;51.962;5.974;2022-08-11T14:41:30;2.97;;;1.73;;
59756;SDS011;45631;51.962;5.974;2022-08-11T14:44:39;3.80;;;1.75;;
59756;SDS011;45631;51.962;5.974;2022-08-11T14:47:28;5.22;;;1.95;;
59756;SDS011;45631;51.962;5.974;2022-08-11T14:52:38;4.65;;;1.90;;
59756;SDS011;45631;51.962;5.974;2022-08-11T14:55:11;3.05;;;1.98;;
59756;SDS011;45631;51.962;5.974;2022-08-11T14:57:58;5.75;;;2.00;;
59756;SDS011;45631;51.962;5.974;2022-08-11T15:00:28;4.43;;;1.92;;
59756;SDS011;45631;51.962;5.974;2022-08-11T15:02:57;4.70;;;1.95;;
59756;SDS011;45631;51.962;5.974;2022-08-11T15:05:39;5.30;;;1.73;;
59756;SDS011;45631;51.962;5.974;2022-08-11T15:08:27;5.53;;;1.98;;
59756;SDS011;45631;51.962;5.974;2022-08-11T15:11:14;4.45;;;1.75;;
59756;SDS011;45631;51.962;5.974;2022-08-11T15:14:02;3.90;;;1.95;;
59756;SDS011;45631;51.962;5.974;2022-08-11T15:16:33;5.25;;;2.03;;
59756;SDS011;45631;51.962;5.974;2022-08-11T15:19:21;4.35;;;1.95;;
59756;SDS011;45631;51.962;5.974;2022-08-11T15:22:06;4.05;;;1.77;;
59756;SDS011;45631;51.962;5.974;2022-08-11T15:24:54;6.00;;;2.10;;
59756;SDS011;45631;51.962;5.974;2022-08-11T15:27:23;5.20;;;2.20;;
59756;SDS011;45631;51.962;5.974;2022-08-11T15:30:09;6.03;;;1.95;;
59756;SDS011;45631;51.962;5.974;2022-08-11T15:33:00;6.35;;;2.15;;
59756;SDS011;45631;51.962;5.974;2022-08-11T15:35:50;5.00;;;1.90;;
59756;SDS011;45631;51.962;5.974;2022-08-11T15:38:39;2.92;;;1.73;;
59756;SDS011;45631;51.962;5.974;2022-08-11T15:41:12;7.05;;;2.13;;
59756;SDS011;45631;51.962;5.974;2022-08-11T15:44:03;4.68;;;1.70;;
59756;SDS011;45631;51.962;5.974;2022-08-11T15:47:14;3.60;;;1.60;;
59756;SDS011;45631;51.962;5.974;2022-08-11T15:49:46;3.63;;;1.80;;
59756;SDS011;45631;51.962;5.974;2022-08-11T15:52:40;4.03;;;1.75;;
59756;SDS011;45631;51.962;5.974;2022-08-11T15:55:13;4.50;;;1.60;;
59756;SDS011;45631;51.962;5.974;2022-08-11T15:57:45;3.13;;;1.80;;
59756;SDS011;45631;51.962;5.974;2022-08-11T16:00:33;3.47;;;1.70;;
59756;SDS011;45631;51.962;5.974;2022-08-11T16:03:29;5.10;;;2.00;;
59756;SDS011;45631;51.962;5.974;2022-08-11T16:06:35;4.65;;;2.08;;
59756;SDS011;45631;51.962;5.974;2022-08-11T16:09:14;4.20;;;2.00;;
59756;SDS011;45631;51.962;5.974;2022-08-11T16:14:15;6.55;;;2.20;;
59756;SDS011;45631;51.962;5.974;2022-08-11T16:17:03;4.28;;;1.92;;
59756;SDS011;45631;51.962;5.974;2022-08-11T16:19:33;3.85;;;2.00;;
59756;SDS011;45631;51.962;5.974;2022-08-11T16:22:07;3.60;;;1.85;;
59756;SDS011;45631;51.962;5.974;2022-08-11T16:24:39;3.50;;;1.73;;
59756;SDS011;45631;51.962;5.974;2022-08-11T16:27:31;4.95;;;2.00;;
59756;SDS011;45631;51.962;5.974;2022-08-11T16:30:03;6.67;;;2.30;;
59756;SDS011;45631;51.962;5.974;2022-08-11T16:32:33;2.92;;;1.80;;
59756;SDS011;45631;51.962;5.974;2022-08-11T16:35:04;4.78;;;1.92;;
59756;SDS011;45631;51.962;5.974;2022-08-11T16:37:54;4.97;;;2.03;;
59756;SDS011;45631;51.962;5.974;2022-08-11T16:40:41;4.78;;;2.13;;
59756;SDS011;45631;51.962;5.974;2022-08-11T16:43:12;4.55;;;1.92;;
59756;SDS011;45631;51.962;5.974;2022-08-11T16:46:01;5.03;;;1.92;;
59756;SDS011;45631;51.962;5.974;2022-08-11T16:48:59;4.10;;;2.00;;
59756;SDS011;45631;51.962;5.974;2022-08-11T16:51:29;4.15;;;1.83;;
59756;SDS011;45631;51.962;5.974;2022-08-11T16:54:00;5.28;;;2.08;;
59756;SDS011;45631;51.962;5.974;2022-08-11T16:56:33;3.72;;;2.00;;
59756;SDS011;45631;51.962;5.974;2022-08-11T16:59:06;4.85;;;2.05;;
59756;SDS011;45631;51.962;5.974;2022-08-11T17:01:44;5.75;;;1.80;;
59756;SDS011;45631;51.962;5.974;2022-08-11T17:04:27;6.15;;;1.92;;
59756;SDS011;45631;51.962;5.974;2022-08-11T17:07:19;4.88;;;1.92;;
59756;SDS011;45631;51.962;5.974;2022-08-11T17:10:14;3.63;;;1.90;;
59756;SDS011;45631;51.962;5.974;2022-08-11T17:13:17;4.40;;;1.90;;
59756;SDS011;45631;51.962;5.974;2022-08-11T17:15:50;4.68;;;1.85;;
59756;SDS011;45631;51.962;5.974;2022-08-11T17:18:47;3.40;;;1.67;;
59756;SDS011;45631;51.962;5.974;2022-08-11T17:21:24;4.82;;;1.90;;
59756;SDS011;45631;51.962;5.974;2022-08-11T17:23:57;3.28;;;1.60;;
59756;SDS011;45631;51.962;5.974;2022-08-11T17:26:36;3.63;;;1.90;;